If you wish to contribute or participate in the discussions about articles you are invited to join SKYbrary as a registered user

 Actions

Lechfeld Airbase

From SKYbrary Wiki

ETSL
Airport
ICAO: ETSL
Summary
Name Lechfeld Airbase
Region Europe
Territory Germany DE.gif
Location Lagerlechfeld, Bavaria
Serving
Coordinates 48° 11' 10.00" N, 10° 51' 42.00" E
Runways
Designator Length Width Surface ROPS
3/21 2442 m8,011.811 ft
30 m98.425 ft
CON /


METAR
Observation ETSL 180020Z 18005KT 9999 FEW050 BKN090 BKN140 12/08 Q1016 BLU
Station Lechfeld
Date/Time 18 October 2019 00:20:00
Wind direction 180°
Wind speed 05 kts
Lowest cloud amount few clouds
Temperature 12°C
Dew point 8°C
Humidity 76%
QNH 1016 hPa
Weather condition n/a

Lechfeld Airbase

ICAO: ETSL IATA: RBM

Description

Lechfeld Air Base is a German Air Force base located 1 km0.54 nm
1,000 m
3,280.84 ft
east of Lagerlechfeld in Bavaria.

Maps

Terrain

Loading map...

Airport Layout

Loading map...



Accidents & Serious Incidents at or in vicinity of ETSL

None on SKYbrary